Terminal Aerodrome Forecast
Issued by NWS

Home | Current Version | Previous Version | Text Only | Print | Product List | Glossary On
Versions: 1 2 3 4 5 6 7 8 9 10 11
000
FTUS45 KABQ 192336
TAFSAF
TAF
KSAF 192336Z 2000/2024 21024G36KT P6SM VCSH BKN060
     FM200400 26021G31KT P6SM VCSH OVC050
      TEMPO 2004/2007 28025G35KT 4SM -SHSN OVC035
     FM200700 30014KT P6SM OVC050
     FM201100 26010KT P6SM BKN050
     FM201800 25015G25KT P6SM FEW050=

USA.gov is the U.S. government's official web portal to all federal, state and local government web resources and services.